createdAt,value
2023-04-14T00:00:21.411Z,29.93
2023-04-14T00:01:21.420Z,29.94
2023-04-14T00:02:21.575Z,29.90
2023-04-14T00:03:21.801Z,29.94
2023-04-14T00:04:21.662Z,29.93
2023-04-14T00:05:21.659Z,29.93
2023-04-14T00:06:21.653Z,29.93
2023-04-14T00:07:21.745Z,29.97
2023-04-14T00:08:21.765Z,29.97
2023-04-14T00:09:21.814Z,29.93
2023-04-14T00:10:21.880Z,29.94
2023-04-14T00:11:21.924Z,29.90
2023-04-14T00:12:22.001Z,29.99
2023-04-14T00:13:22.061Z,29.94
2023-04-14T00:14:22.092Z,29.93
2023-04-14T00:15:22.223Z,29.91
2023-04-14T00:16:22.242Z,29.93
2023-04-14T00:17:22.285Z,29.94
2023-04-14T00:18:22.326Z,29.93
2023-04-14T00:19:22.386Z,29.91
2023-04-14T00:20:22.470Z,29.93
2023-04-14T00:21:22.499Z,29.96
2023-04-14T00:22:22.557Z,29.93
2023-04-14T00:23:22.616Z,29.94
2023-04-14T00:24:22.681Z,29.93
2023-04-14T00:25:22.720Z,29.92
2023-04-14T00:26:22.782Z,29.93
2023-04-14T00:27:22.839Z,29.89
2023-04-14T00:28:22.886Z,29.90
2023-04-14T00:29:22.962Z,29.89
2023-04-14T00:30:22.997Z,29.93
2023-04-14T00:31:23.102Z,29.93
2023-04-14T00:32:23.135Z,29.94
2023-04-14T00:33:23.167Z,29.94
2023-04-14T00:34:23.230Z,29.93
2023-04-14T00:35:23.280Z,29.96
2023-04-14T00:36:23.343Z,29.91
2023-04-14T00:37:23.397Z,29.93
2023-04-14T00:38:23.452Z,29.90
2023-04-14T00:39:23.506Z,29.93
2023-04-14T00:40:23.567Z,29.89
2023-04-14T00:41:23.620Z,29.91
2023-04-14T00:42:23.670Z,29.90
2023-04-14T00:43:23.728Z,29.87
2023-04-14T00:44:23.781Z,29.87
2023-04-14T00:45:23.867Z,29.91
2023-04-14T00:46:23.944Z,29.94
2023-04-14T00:47:24.006Z,29.89
2023-04-14T00:48:24.022Z,29.91
2023-04-14T00:49:24.078Z,29.93
2023-04-14T00:50:24.145Z,29.93
2023-04-14T00:51:24.192Z,29.86
2023-04-14T00:52:24.253Z,29.86
2023-04-14T00:53:25.061Z,29.94
2023-04-14T00:54:24.372Z,29.87
2023-04-14T00:55:24.424Z,29.89
2023-04-14T00:56:24.494Z,29.88
2023-04-14T00:57:24.553Z,29.91
2023-04-14T00:58:24.607Z,29.89
2023-04-14T00:59:24.666Z,29.90
2023-04-14T01:00:24.726Z,29.87
2023-04-14T01:01:24.852Z,29.87
2023-04-14T01:02:25.008Z,29.92
2023-04-14T01:03:25.171Z,29.86
2023-04-14T01:04:33.585Z,29.91
2023-04-14T01:05:25.020Z,29.93
2023-04-14T01:06:24.969Z,29.90
2023-04-14T01:07:24.975Z,29.87
2023-04-14T01:08:24.987Z,29.87
2023-04-14T01:09:24.998Z,29.86
2023-04-14T01:10:25.005Z,29.80
2023-04-14T01:11:25.009Z,29.86
2023-04-14T01:12:25.018Z,29.87
2023-04-14T01:13:25.006Z,29.87
2023-04-14T01:14:25.182Z,29.87
2023-04-14T01:15:25.027Z,29.87
2023-04-14T01:16:25.386Z,29.89
2023-04-14T01:17:25.059Z,29.86
2023-04-14T01:18:25.031Z,29.82
2023-04-14T01:19:25.035Z,29.84
2023-04-14T01:20:25.031Z,29.80
2023-04-14T01:21:25.025Z,29.80
2023-04-14T01:22:25.034Z,29.82
2023-04-14T01:23:25.042Z,29.77
2023-04-14T01:24:25.050Z,29.80
2023-04-14T01:25:25.042Z,29.77
2023-04-14T01:26:25.035Z,29.75
2023-04-14T01:27:25.043Z,29.77
2023-04-14T01:28:25.044Z,29.77
2023-04-14T01:29:25.050Z,29.76
2023-04-14T01:30:25.056Z,29.76
2023-04-14T01:31:25.088Z,29.75
2023-04-14T01:32:25.082Z,29.75
2023-04-14T01:33:25.086Z,29.70
2023-04-14T01:34:25.277Z,29.78
2023-04-14T01:35:25.239Z,29.77
2023-04-14T01:36:25.244Z,29.75
2023-04-14T01:37:25.290Z,29.80
2023-04-14T01:38:25.347Z,29.79
2023-04-14T01:39:25.404Z,29.75
2023-04-14T01:40:25.465Z,29.75
2023-04-14T01:41:25.514Z,29.73
2023-04-14T01:42:25.564Z,29.76
2023-04-14T01:43:25.630Z,29.70
2023-04-14T01:44:25.695Z,29.73
2023-04-14T01:45:25.770Z,29.76
2023-04-14T01:46:25.792Z,29.73
2023-04-14T01:47:25.861Z,29.77
2023-04-14T01:48:25.912Z,29.70
2023-04-14T01:49:26.020Z,29.71
2023-04-14T01:50:26.007Z,29.78
2023-04-14T01:51:26.065Z,29.78
2023-04-14T01:52:26.121Z,29.73
2023-04-14T01:53:26.176Z,29.75
2023-04-14T01:54:26.238Z,29.76
2023-04-14T01:55:26.298Z,29.73
2023-04-14T01:56:26.342Z,29.78
2023-04-14T01:57:26.411Z,29.80
2023-04-14T01:58:26.459Z,29.76
2023-04-14T01:59:26.516Z,29.71
2023-04-14T02:00:26.580Z,29.78
2023-04-14T02:01:26.719Z,29.77
2023-04-14T02:02:26.774Z,29.71
2023-04-14T02:03:26.804Z,29.78
2023-04-14T02:04:26.792Z,29.78
2023-04-14T02:05:26.876Z,29.71
2023-04-14T02:06:26.900Z,29.78
2023-04-14T02:07:26.962Z,29.75
2023-04-14T02:08:27.022Z,29.75
2023-04-14T02:09:27.076Z,29.71
2023-04-14T02:10:27.129Z,29.76
2023-04-14T02:11:27.184Z,29.70
2023-04-14T02:12:27.241Z,29.69
2023-04-14T02:13:27.310Z,29.73
2023-04-14T02:14:27.508Z,29.70
2023-04-14T02:15:27.413Z,29.71
2023-04-14T02:16:27.532Z,29.74
2023-04-14T02:17:27.558Z,29.76
2023-04-14T02:18:27.569Z,29.77
2023-04-14T02:19:27.625Z,29.70
2023-04-14T02:20:27.689Z,29.71
2023-04-14T02:21:27.771Z,29.75
2023-04-14T02:22:27.788Z,29.70
2023-04-14T02:23:27.849Z,29.69
2023-04-14T02:24:27.906Z,29.69
2023-04-14T02:25:27.951Z,29.73
2023-04-14T02:26:28.033Z,29.71
2023-04-14T02:27:28.079Z,29.71
2023-04-14T02:28:28.121Z,29.74
2023-04-14T02:29:28.313Z,29.69
2023-04-14T02:30:28.232Z,29.71
2023-04-14T02:31:28.273Z,29.76
2023-04-14T02:32:28.355Z,29.77
2023-04-14T02:33:28.408Z,29.67
2023-04-14T02:34:28.433Z,29.71
2023-04-14T02:35:28.491Z,29.78
2023-04-14T02:36:28.546Z,29.76
2023-04-14T02:37:28.614Z,29.69
2023-04-14T02:38:28.642Z,29.71
2023-04-14T02:39:28.699Z,29.71
2023-04-14T02:40:28.779Z,29.71
2023-04-14T02:41:28.820Z,29.71
2023-04-14T02:42:28.871Z,29.70
2023-04-14T02:43:28.922Z,29.66
2023-04-14T02:44:28.971Z,29.73
2023-04-14T02:45:29.037Z,29.74
2023-04-14T02:46:29.127Z,29.69
2023-04-14T02:47:29.164Z,29.75
2023-04-14T02:48:29.205Z,29.69
2023-04-14T02:49:29.255Z,29.69
2023-04-14T02:50:29.318Z,29.75
2023-04-14T02:51:29.373Z,29.71
2023-04-14T02:52:29.429Z,29.69
2023-04-14T02:53:29.513Z,29.70
2023-04-14T02:54:29.550Z,29.70
2023-04-14T02:55:29.625Z,29.71
2023-04-14T02:56:29.663Z,29.75
2023-04-14T02:57:29.716Z,29.73
2023-04-14T02:58:29.780Z,29.75
2023-04-14T02:59:29.834Z,29.70
2023-04-14T03:00:29.887Z,29.73
2023-04-14T03:01:30.029Z,29.71
2023-04-14T03:02:30.071Z,29.69
2023-04-14T03:03:30.115Z,29.73
2023-04-14T03:04:30.216Z,29.69
2023-04-14T03:05:30.160Z,29.67
2023-04-14T03:06:30.220Z,29.70
2023-04-14T03:07:30.282Z,29.71
2023-04-14T03:08:30.339Z,29.64
2023-04-14T03:09:30.425Z,29.70
2023-04-14T03:10:30.457Z,29.67
2023-04-14T03:11:30.512Z,29.69
2023-04-14T03:12:30.604Z,29.69
2023-04-14T03:13:30.619Z,29.64
2023-04-14T03:14:30.681Z,29.67
2023-04-14T03:15:30.747Z,29.63
2023-04-14T03:16:30.872Z,29.67
2023-04-14T03:17:30.898Z,29.64
2023-04-14T03:18:30.925Z,29.69
2023-04-14T03:19:30.987Z,29.64
2023-04-14T03:20:31.041Z,29.63
2023-04-14T03:21:31.105Z,29.66
2023-04-14T03:22:31.164Z,29.67
2023-04-14T03:23:31.209Z,29.70
2023-04-14T03:24:31.266Z,29.75
2023-04-14T03:25:31.350Z,29.66
2023-04-14T03:26:31.374Z,29.66
2023-04-14T03:27:31.435Z,29.64
2023-04-14T03:28:31.473Z,29.64
2023-04-14T03:29:31.648Z,29.62
2023-04-14T03:30:31.586Z,29.64
2023-04-14T03:31:31.666Z,29.59
2023-04-14T03:32:31.717Z,29.63
2023-04-14T03:33:31.732Z,29.64
2023-04-14T03:34:31.786Z,29.61
2023-04-14T03:35:31.822Z,29.55
2023-04-14T03:36:31.878Z,29.57
2023-04-14T03:37:31.924Z,29.53
2023-04-14T03:38:31.982Z,29.54
2023-04-14T03:39:32.010Z,29.53
2023-04-14T03:40:32.055Z,29.48
2023-04-14T03:41:32.136Z,29.46
2023-04-14T03:42:32.151Z,29.50
2023-04-14T03:43:32.190Z,29.53
2023-04-14T03:44:32.228Z,29.49
2023-04-14T03:45:32.276Z,29.47
2023-04-14T03:46:32.348Z,29.49
2023-04-14T03:47:32.384Z,29.49
2023-04-14T03:48:32.400Z,29.47
2023-04-14T03:49:32.421Z,29.56
2023-04-14T03:50:32.459Z,29.50
2023-04-14T03:51:32.498Z,29.46
2023-04-14T03:52:32.530Z,29.47
2023-04-14T03:53:32.558Z,29.46
2023-04-14T03:54:32.597Z,29.40
2023-04-14T03:55:32.638Z,29.49
2023-04-14T03:56:32.662Z,29.46
2023-04-14T03:57:32.719Z,29.49
2023-04-14T03:58:32.743Z,29.46
2023-04-14T03:59:32.769Z,29.50
2023-04-14T04:00:32.798Z,29.55
2023-04-14T04:01:32.838Z,29.47
2023-04-14T04:02:32.975Z,29.51
2023-04-14T04:03:33.011Z,29.53
2023-04-14T04:04:33.012Z,29.54
2023-04-14T04:05:32.956Z,29.60
2023-04-14T04:06:32.994Z,29.60
2023-04-14T04:07:33.013Z,29.55
2023-04-14T04:08:33.043Z,29.58
2023-04-14T04:09:33.084Z,29.61
2023-04-14T04:10:33.108Z,29.61
2023-04-14T04:11:33.136Z,29.58
2023-04-14T04:12:33.168Z,29.58
2023-04-14T04:13:33.209Z,29.62
2023-04-14T04:14:33.218Z,29.64
2023-04-14T04:15:33.242Z,29.60
2023-04-14T04:16:33.290Z,29.61
2023-04-14T04:17:33.322Z,29.60
2023-04-14T04:18:33.322Z,29.62
2023-04-14T04:19:33.346Z,29.61
2023-04-14T04:20:33.376Z,29.59
2023-04-14T04:21:33.402Z,29.58
2023-04-14T04:22:33.431Z,29.55
2023-04-14T04:23:33.467Z,29.60
2023-04-14T04:24:33.500Z,29.53
2023-04-14T04:25:33.521Z,29.64
2023-04-14T04:26:35.733Z,29.62
2023-04-14T04:27:33.540Z,29.55
2023-04-14T04:28:33.525Z,29.60
2023-04-14T04:29:33.553Z,29.60
2023-04-14T04:30:33.552Z,29.63
2023-04-14T04:31:33.550Z,29.54
2023-04-14T04:32:33.669Z,29.51
2023-04-14T04:33:33.528Z,29.54
2023-04-14T04:34:33.956Z,29.54
2023-04-14T04:35:33.527Z,29.56
2023-04-14T04:36:33.520Z,29.51
2023-04-14T04:37:33.510Z,29.59
2023-04-14T04:38:34.163Z,29.54
2023-04-14T04:39:33.503Z,29.59
2023-04-14T04:40:33.493Z,29.54
2023-04-14T04:41:33.492Z,29.59
2023-04-14T04:42:33.484Z,29.57
2023-04-14T04:43:33.490Z,29.54
2023-04-14T04:44:33.471Z,29.56
2023-04-14T04:45:33.585Z,29.55
2023-04-14T04:46:33.609Z,29.55
2023-04-14T04:47:33.475Z,29.57
2023-04-14T04:48:33.452Z,29.55
2023-04-14T04:49:33.440Z,29.53
2023-04-14T04:50:33.436Z,29.55
2023-04-14T04:51:33.433Z,29.53
2023-04-14T04:52:33.432Z,29.58
2023-04-14T04:53:33.427Z,29.54
2023-04-14T04:54:33.425Z,29.54
2023-04-14T04:55:33.422Z,29.61
2023-04-14T04:56:33.424Z,29.57
2023-04-14T04:57:33.415Z,29.54
2023-04-14T04:58:33.406Z,29.54
2023-04-14T04:59:33.487Z,29.61
2023-04-14T05:00:33.408Z,29.53
2023-04-14T05:01:33.472Z,29.59
2023-04-14T05:02:33.546Z,29.61
2023-04-14T05:03:33.473Z,29.60
2023-04-14T05:04:33.546Z,29.57
2023-04-14T05:05:33.391Z,29.57
2023-04-14T05:06:33.377Z,29.61
2023-04-14T05:07:33.379Z,29.55
2023-04-14T05:08:33.376Z,29.53
2023-04-14T05:09:33.376Z,29.59
2023-04-14T05:10:33.379Z,29.56
2023-04-14T05:11:33.369Z,29.42
2023-04-14T05:12:33.370Z,29.35
2023-04-14T05:13:33.390Z,29.22
2023-04-14T05:14:33.415Z,29.11
2023-04-14T05:15:33.506Z,28.98
2023-04-14T05:16:34.332Z,28.94
2023-04-14T05:17:33.550Z,28.87
2023-04-14T05:18:33.521Z,28.87
2023-04-14T05:19:33.559Z,28.86
2023-04-14T05:20:34.947Z,28.94
2023-04-14T05:21:33.642Z,29.15
2023-04-14T05:22:33.665Z,29.30
2023-04-14T05:23:33.690Z,29.30
2023-04-14T05:24:33.717Z,29.43
2023-04-14T05:25:34.204Z,29.48
2023-04-14T05:26:49.114Z,29.59
2023-04-14T05:27:33.774Z,29.68
2023-04-14T05:28:33.762Z,29.79
2023-04-14T05:29:33.767Z,29.80
2023-04-14T05:30:33.746Z,29.82
2023-04-14T05:31:34.253Z,29.94
2023-04-14T05:32:33.748Z,29.96
2023-04-14T05:33:33.757Z,29.98
2023-04-14T05:34:34.428Z,30.11
2023-04-14T05:35:33.728Z,30.21
2023-04-14T05:36:34.194Z,30.20
2023-04-14T05:37:35.673Z,30.27
2023-04-14T05:38:33.709Z,30.42
2023-04-14T05:39:33.701Z,30.45
2023-04-14T05:40:34.194Z,30.48
2023-04-14T05:41:33.683Z,30.46
2023-04-14T05:42:33.677Z,30.66
2023-04-14T05:43:33.687Z,30.68
2023-04-14T05:44:33.663Z,30.69
2023-04-14T05:45:33.652Z,30.69
2023-04-14T05:46:33.747Z,30.79
2023-04-14T05:47:33.657Z,30.80
2023-04-14T05:48:33.879Z,30.86
2023-04-14T05:49:33.629Z,31.12
2023-04-14T05:50:33.597Z,31.34
2023-04-14T05:51:33.699Z,31.61
2023-04-14T05:52:33.595Z,32.37
2023-04-14T05:53:33.703Z,32.40
2023-04-14T05:54:33.567Z,32.08
2023-04-14T05:55:33.697Z,32.17
2023-04-14T05:56:33.553Z,32.29
2023-04-14T05:57:33.545Z,32.38
2023-04-14T05:58:34.693Z,32.61
2023-04-14T05:59:33.526Z,33.04
2023-04-14T06:00:33.734Z,33.27
2023-04-14T06:01:49.500Z,32.99
2023-04-14T06:02:33.834Z,33.06
2023-04-14T06:03:41.116Z,33.12
2023-04-14T06:04:33.704Z,33.37
2023-04-14T06:06:41.088Z,33.40
2023-04-14T06:07:33.539Z,33.78
2023-04-14T06:08:33.394Z,33.50
2023-04-14T06:09:34.410Z,33.62
2023-04-14T06:10:33.348Z,33.57
2023-04-14T06:11:33.729Z,33.38
2023-04-14T06:12:40.706Z,33.25
2023-04-14T06:13:35.704Z,33.61
2023-04-14T06:14:33.256Z,33.40
2023-04-14T06:15:33.707Z,33.18
2023-04-14T06:16:33.240Z,33.28
2023-04-14T06:17:33.215Z,33.35
2023-04-14T06:18:33.171Z,33.44
2023-04-14T06:19:33.153Z,33.35
2023-04-14T06:20:33.229Z,33.97
2023-04-14T06:21:33.105Z,33.69
2023-04-14T06:22:33.114Z,33.53
2023-04-14T06:23:33.095Z,33.61
2023-04-14T06:24:33.068Z,33.54
2023-04-14T06:25:33.219Z,33.54
2023-04-14T06:26:33.211Z,33.46
2023-04-14T06:27:33.019Z,33.46
2023-04-14T06:28:32.953Z,33.25
2023-04-14T06:29:32.935Z,33.30
2023-04-14T06:30:32.904Z,33.62
2023-04-14T06:31:32.952Z,33.41
2023-04-14T06:32:32.885Z,33.46
2023-04-14T06:33:32.852Z,33.41
2023-04-14T06:34:33.209Z,33.31
2023-04-14T06:35:34.089Z,33.44
2023-04-14T06:36:33.211Z,33.46
2023-04-14T06:37:33.022Z,33.42
2023-04-14T06:38:33.119Z,33.48
2023-04-14T06:39:33.116Z,33.38
2023-04-14T06:40:33.222Z,33.37
2023-04-14T06:41:40.611Z,33.21
2023-04-14T06:42:33.196Z,33.27
2023-04-14T06:43:33.153Z,33.28
2023-04-14T06:44:33.707Z,33.34
2023-04-14T06:45:33.348Z,33.28
2023-04-14T06:46:33.261Z,33.20
2023-04-14T06:47:33.100Z,33.22
2023-04-14T06:48:33.050Z,33.16
2023-04-14T06:49:33.059Z,33.34
2023-04-14T06:50:33.547Z,33.84
2023-04-14T06:51:33.279Z,33.56
2023-04-14T06:52:33.043Z,33.55
2023-04-14T06:53:32.973Z,33.56
2023-04-14T06:54:32.945Z,33.52
2023-04-14T06:55:33.219Z,33.25
2023-04-14T06:56:33.129Z,33.48
2023-04-14T06:57:32.879Z,33.34
2023-04-14T06:58:32.917Z,33.33
2023-04-14T06:59:32.842Z,33.11
2023-04-14T07:00:33.226Z,32.96
2023-04-14T07:01:32.887Z,33.01
2023-04-14T07:02:32.934Z,32.97
2023-04-14T07:03:32.936Z,33.13
2023-04-14T07:04:32.981Z,32.95
2023-04-14T07:05:33.219Z,33.10
2023-04-14T07:06:33.234Z,33.04
2023-04-14T07:07:33.000Z,32.95
2023-04-14T07:08:33.059Z,33.07
2023-04-14T07:09:33.247Z,33.14
2023-04-14T07:10:33.155Z,32.93
2023-04-14T07:11:33.154Z,32.92
2023-04-14T07:12:33.183Z,32.84
2023-04-14T07:13:33.400Z,32.80
2023-04-14T07:14:33.249Z,32.73
2023-04-14T07:15:33.319Z,32.82
2023-04-14T07:16:33.379Z,32.76
2023-04-14T07:17:33.740Z,32.77
2023-04-14T07:18:33.384Z,32.86
2023-04-14T07:19:33.420Z,32.74
2023-04-14T07:20:33.453Z,32.83
2023-04-14T07:21:33.482Z,32.72
2023-04-14T07:22:33.723Z,32.68
2023-04-14T07:23:33.566Z,32.66
2023-04-14T07:24:33.723Z,32.60
2023-04-14T07:25:33.625Z,32.62
2023-04-14T07:26:33.748Z,32.59
2023-04-14T07:27:34.746Z,32.56
2023-04-14T07:28:33.762Z,32.62
2023-04-14T07:29:33.781Z,32.46
2023-04-14T07:30:33.820Z,32.57
2023-04-14T07:31:34.249Z,32.63
2023-04-14T07:32:33.931Z,32.64
2023-04-14T07:33:33.940Z,32.56
2023-04-14T07:34:33.966Z,32.55
2023-04-14T07:35:34.239Z,32.62
2023-04-14T07:36:34.043Z,32.48
2023-04-14T07:37:34.262Z,32.44
2023-04-14T07:38:34.118Z,32.33
2023-04-14T07:39:34.177Z,32.51
2023-04-14T07:40:34.241Z,32.66
2023-04-14T07:41:35.261Z,32.80
2023-04-14T07:42:34.308Z,32.49
2023-04-14T07:43:34.309Z,32.48
2023-04-14T07:44:34.736Z,32.55
2023-04-14T07:45:35.225Z,32.53
2023-04-14T07:46:34.760Z,32.39
2023-04-14T07:47:34.494Z,32.32
2023-04-14T07:48:34.551Z,32.36
2023-04-14T07:49:34.735Z,32.39
2023-04-14T07:50:34.630Z,32.79
2023-04-14T07:51:37.861Z,32.69
2023-04-14T07:52:34.629Z,32.39
2023-04-14T07:53:34.741Z,32.32
2023-04-14T07:54:34.584Z,32.38
2023-04-14T07:55:34.600Z,32.82
2023-04-14T07:56:34.797Z,32.91
2023-04-14T07:57:34.545Z,32.71
2023-04-14T07:58:34.575Z,32.59
2023-04-14T07:59:34.491Z,32.51
2023-04-14T08:00:34.483Z,32.47
2023-04-14T08:01:34.756Z,32.42
2023-04-14T08:02:34.542Z,32.64
2023-04-14T08:03:34.495Z,32.42
2023-04-14T08:04:34.386Z,32.47
2023-04-14T08:05:34.416Z,32.45
2023-04-14T08:06:34.737Z,32.41
2023-04-14T08:07:34.283Z,32.56
2023-04-14T08:08:34.249Z,32.64
2023-04-14T08:09:34.219Z,32.46
2023-04-14T08:10:34.194Z,32.48
2023-04-14T08:11:34.183Z,32.64
2023-04-14T08:12:34.229Z,32.47
2023-04-14T08:13:34.238Z,32.54
2023-04-14T08:14:34.764Z,32.49
2023-04-14T08:15:34.317Z,32.50
2023-04-14T08:16:34.359Z,32.42
2023-04-14T08:17:34.770Z,32.42
2023-04-14T08:18:34.407Z,32.28
2023-04-14T08:19:34.418Z,32.26
2023-04-14T08:20:34.525Z,32.34
2023-04-14T08:21:34.498Z,32.35
2023-04-14T08:22:34.526Z,32.34
2023-04-14T08:23:34.549Z,32.24
2023-04-14T08:24:37.217Z,32.35
2023-04-14T08:25:34.741Z,32.28
2023-04-14T08:26:34.527Z,32.36
2023-04-14T08:27:34.510Z,32.36
2023-04-14T08:28:34.491Z,32.31
2023-04-14T08:29:34.748Z,32.25
2023-04-14T08:30:34.782Z,32.24
2023-04-14T08:31:34.450Z,32.14
2023-04-14T08:32:34.808Z,32.14
2023-04-14T08:33:34.703Z,32.14
2023-04-14T08:34:34.346Z,32.01
2023-04-14T08:35:39.286Z,32.03
2023-04-14T08:36:34.338Z,31.94
2023-04-14T08:37:34.273Z,31.99
2023-04-14T08:38:34.230Z,31.89
2023-04-14T08:39:34.294Z,31.89
2023-04-14T08:40:34.263Z,31.87
2023-04-14T08:41:34.152Z,32.10
2023-04-14T08:42:34.145Z,32.20
2023-04-14T08:43:34.105Z,32.25
2023-04-14T08:44:34.091Z,32.33
2023-04-14T08:45:34.288Z,32.38
2023-04-14T08:46:34.150Z,32.49
2023-04-14T08:47:35.084Z,32.41
2023-04-14T08:48:34.246Z,32.19
2023-04-14T08:49:33.951Z,32.05
2023-04-14T08:50:34.215Z,31.69
2023-04-14T08:51:33.910Z,31.69
2023-04-14T08:52:34.109Z,31.55
2023-04-14T08:53:34.263Z,31.23
2023-04-14T08:54:34.302Z,31.20
2023-04-14T08:55:33.922Z,31.29
2023-04-14T08:56:33.980Z,31.34
2023-04-14T08:57:34.049Z,31.49
2023-04-14T08:58:34.063Z,31.59
2023-04-14T08:59:34.092Z,31.57
2023-04-14T09:00:34.380Z,31.48
2023-04-14T09:01:36.030Z,31.59
2023-04-14T09:02:34.361Z,31.65
2023-04-14T09:03:34.363Z,31.65
2023-04-14T09:04:34.721Z,31.64
2023-04-14T09:05:34.071Z,31.66
2023-04-14T09:06:34.292Z,31.71
2023-04-14T09:07:34.088Z,31.69
2023-04-14T09:08:34.077Z,31.85
2023-04-14T09:09:34.121Z,31.79
2023-04-14T09:10:34.077Z,31.88
2023-04-14T09:11:33.949Z,31.86
2023-04-14T09:12:33.918Z,31.83
2023-04-14T09:13:33.864Z,31.78
2023-04-14T09:14:33.832Z,31.92
2023-04-14T09:15:34.405Z,31.94
2023-04-14T09:16:33.819Z,31.95
2023-04-14T09:17:33.802Z,32.02
2023-04-14T09:18:33.748Z,31.92
2023-04-14T09:19:33.786Z,32.07
2023-04-14T09:20:38.898Z,32.06
2023-04-14T09:21:52.309Z,32.12
2023-04-14T09:22:33.752Z,32.18
2023-04-14T09:23:33.724Z,32.34
2023-04-14T09:24:33.714Z,32.26
2023-04-14T09:25:33.778Z,32.32
2023-04-14T09:26:33.790Z,32.29
2023-04-14T09:27:34.349Z,32.18
2023-04-14T09:28:33.586Z,32.24
2023-04-14T09:29:34.540Z,32.31
2023-04-14T09:30:33.770Z,32.11
2023-04-14T09:31:33.648Z,31.95
2023-04-14T09:32:33.532Z,31.85
2023-04-14T09:33:33.491Z,31.69
2023-04-14T09:34:49.299Z,31.61
2023-04-14T09:35:33.774Z,31.55
2023-04-14T09:36:33.639Z,31.54
2023-04-14T09:37:33.399Z,31.54
2023-04-14T09:38:33.794Z,31.42
2023-04-14T09:39:33.389Z,31.65
2023-04-14T09:40:33.778Z,31.81
2023-04-14T09:41:33.292Z,31.83
2023-04-14T09:42:33.265Z,31.88
2023-04-14T09:43:33.274Z,31.91
2023-04-14T09:44:33.215Z,31.92
2023-04-14T09:45:33.283Z,31.99
2023-04-14T09:46:33.201Z,32.09
2023-04-14T09:47:33.358Z,32.13
2023-04-14T09:48:33.121Z,32.25
2023-04-14T09:49:33.113Z,32.30
2023-04-14T09:50:33.326Z,32.35
2023-04-14T09:51:34.041Z,32.38
2023-04-14T09:52:33.028Z,32.44
2023-04-14T09:53:33.002Z,32.44
2023-04-14T09:54:32.975Z,32.55
2023-04-14T09:55:33.300Z,32.50
2023-04-14T09:56:33.313Z,32.54
2023-04-14T09:57:33.041Z,32.57
2023-04-14T09:58:33.084Z,32.62
2023-04-14T09:59:33.103Z,32.61
2023-04-14T10:00:33.159Z,32.66
2023-04-14T10:01:33.369Z,32.66
2023-04-14T10:02:33.465Z,32.68
2023-04-14T10:03:34.230Z,32.74
2023-04-14T10:04:33.268Z,32.73
2023-04-14T10:05:34.690Z,32.70
2023-04-14T10:06:33.537Z,32.80
2023-04-14T10:07:33.520Z,32.77
2023-04-14T10:08:33.794Z,32.76
2023-04-14T10:09:33.549Z,32.80
2023-04-14T10:10:33.576Z,32.74
2023-04-14T10:11:33.610Z,32.70
2023-04-14T10:12:33.623Z,32.70
2023-04-14T10:13:33.784Z,32.71
2023-04-14T10:14:33.661Z,32.75
2023-04-14T10:15:33.918Z,32.65
2023-04-14T10:16:33.953Z,32.70
2023-04-14T10:17:34.296Z,32.89
2023-04-14T10:18:33.912Z,32.83
2023-04-14T10:19:33.752Z,32.83
2023-04-14T10:20:33.794Z,32.89
2023-04-14T10:21:34.084Z,32.86
2023-04-14T10:22:33.850Z,32.77
2023-04-14T10:23:34.297Z,32.85
2023-04-14T10:24:34.306Z,32.97
2023-04-14T10:25:33.846Z,32.93
2023-04-14T10:26:33.866Z,32.93
2023-04-14T10:27:34.317Z,32.79
2023-04-14T10:28:34.449Z,32.82
2023-04-14T10:29:33.913Z,32.91
2023-04-14T10:30:33.948Z,32.93
2023-04-14T10:31:33.950Z,32.87
2023-04-14T10:32:34.317Z,32.99
2023-04-14T10:33:33.968Z,32.90
2023-04-14T10:34:33.979Z,32.81
2023-04-14T10:35:34.324Z,32.75
2023-04-14T10:36:34.013Z,32.74
2023-04-14T10:37:34.293Z,32.67
2023-04-14T10:38:34.072Z,32.65
2023-04-14T10:39:34.064Z,32.65
2023-04-14T10:40:34.312Z,32.52
2023-04-14T10:41:34.118Z,32.48
2023-04-14T10:42:34.321Z,32.45
2023-04-14T10:43:34.153Z,32.40
2023-04-14T10:44:34.173Z,32.54
2023-04-14T10:45:34.202Z,32.43
2023-04-14T10:46:34.360Z,32.40
2023-04-14T10:47:34.309Z,32.30
2023-04-14T10:48:34.282Z,32.45
2023-04-14T10:49:34.321Z,32.47
2023-04-14T10:50:34.339Z,32.29
2023-04-14T10:51:34.369Z,32.12
2023-04-14T10:52:34.801Z,32.18
2023-04-14T10:53:34.426Z,32.10
2023-04-14T10:54:34.479Z,32.10
2023-04-14T10:55:37.315Z,32.13
2023-04-14T10:56:34.802Z,32.10
2023-04-14T10:57:37.708Z,32.12
2023-04-14T10:58:34.423Z,32.13
2023-04-14T10:59:34.394Z,32.10
2023-04-14T11:00:34.377Z,32.07
2023-04-14T11:01:34.893Z,32.08
2023-04-14T11:02:35.349Z,32.06
2023-04-14T11:03:34.536Z,32.10
2023-04-14T11:04:34.392Z,32.12
2023-04-14T11:05:38.005Z,32.08
2023-04-14T11:06:34.367Z,32.06
2023-04-14T11:07:34.340Z,32.11
2023-04-14T11:08:34.460Z,32.09
2023-04-14T11:09:34.304Z,32.06
2023-04-14T11:10:34.341Z,32.04
2023-04-14T11:11:34.876Z,31.97
2023-04-14T11:12:34.240Z,31.96
2023-04-14T11:13:34.320Z,32.03
2023-04-14T11:14:34.193Z,32.03
2023-04-14T11:15:34.176Z,31.97
2023-04-14T11:16:34.205Z,31.90
2023-04-14T11:17:34.409Z,31.97
2023-04-14T11:18:34.122Z,31.91
2023-04-14T11:19:37.347Z,31.90
2023-04-14T11:20:34.066Z,31.84
2023-04-14T11:21:34.042Z,31.84
2023-04-14T11:22:34.331Z,31.77
2023-04-14T11:23:34.010Z,31.76
2023-04-14T11:24:33.996Z,31.77
2023-04-14T11:25:34.342Z,31.74
2023-04-14T11:26:33.978Z,31.72
2023-04-14T11:27:33.920Z,31.72
2023-04-14T11:28:33.909Z,31.75
2023-04-14T11:29:33.895Z,31.72
2023-04-14T11:30:34.310Z,31.71
2023-04-14T11:31:33.923Z,31.71
2023-04-14T11:32:33.903Z,31.64
2023-04-14T11:33:33.835Z,31.58
2023-04-14T11:34:33.777Z,31.67
2023-04-14T11:35:33.817Z,31.59
2023-04-14T11:36:33.753Z,31.61
2023-04-14T11:37:33.727Z,31.55
2023-04-14T11:38:33.708Z,31.53
2023-04-14T11:39:33.811Z,31.54
2023-04-14T11:40:33.803Z,31.49
2023-04-14T11:41:33.861Z,31.47
2023-04-14T11:42:33.924Z,31.52
2023-04-14T11:43:33.955Z,31.51
2023-04-14T11:44:33.993Z,31.48
2023-04-14T11:45:34.025Z,31.48
2023-04-14T11:46:34.181Z,31.47
2023-04-14T11:47:34.108Z,31.49
2023-04-14T11:48:34.122Z,31.45
2023-04-14T11:49:34.177Z,31.47
2023-04-14T11:50:34.228Z,31.45
2023-04-14T11:51:34.259Z,31.41
2023-04-14T11:52:34.587Z,31.45
2023-04-14T11:53:34.828Z,31.41
2023-04-14T11:54:35.092Z,31.44
2023-04-14T11:55:34.422Z,31.37
2023-04-14T11:56:34.477Z,31.32
2023-04-14T11:57:34.822Z,31.37
2023-04-14T11:58:34.858Z,31.35
2023-04-14T11:59:34.505Z,31.32
2023-04-14T12:00:34.512Z,31.37
2023-04-14T12:01:35.824Z,31.32
2023-04-14T12:02:34.682Z,31.29
2023-04-14T12:03:34.752Z,31.26
2023-04-14T12:04:34.811Z,31.26
2023-04-14T12:05:34.745Z,31.31
2023-04-14T12:06:34.778Z,31.27
2023-04-14T12:07:34.818Z,31.26
2023-04-14T12:08:34.815Z,31.24
2023-04-14T12:09:34.837Z,31.20
2023-04-14T12:10:34.872Z,31.22
2023-04-14T12:11:34.909Z,31.15
2023-04-14T12:12:34.975Z,31.17
2023-04-14T12:13:35.028Z,31.16
2023-04-14T12:14:35.107Z,31.15
2023-04-14T12:15:35.335Z,31.24
2023-04-14T12:16:35.330Z,31.33
2023-04-14T12:17:35.369Z,31.36
2023-04-14T12:18:35.307Z,31.47
2023-04-14T12:19:36.349Z,31.48
2023-04-14T12:20:35.410Z,31.55
2023-04-14T12:21:35.469Z,31.64
2023-04-14T12:22:35.529Z,31.72
2023-04-14T12:23:35.584Z,31.77
2023-04-14T12:24:35.632Z,31.80
2023-04-14T12:25:35.674Z,31.77
2023-04-14T12:26:35.729Z,31.70
2023-04-14T12:27:35.778Z,31.76
2023-04-14T12:28:35.864Z,31.81
2023-04-14T12:29:35.879Z,31.83
2023-04-14T12:30:36.065Z,31.86
2023-04-14T12:31:36.023Z,31.89
2023-04-14T12:32:36.086Z,31.90
2023-04-14T12:33:36.362Z,31.89
2023-04-14T12:34:36.142Z,31.90
2023-04-14T12:35:36.230Z,31.92
2023-04-14T12:37:36.188Z,32.00
2023-04-14T12:37:48.186Z,31.94
2023-04-14T12:38:36.166Z,31.97
2023-04-14T12:39:36.141Z,32.01
2023-04-14T12:40:36.147Z,32.04
2023-04-14T12:41:36.115Z,31.99
2023-04-14T12:42:36.337Z,32.05
2023-04-14T12:43:36.089Z,32.02
2023-04-14T12:44:36.122Z,31.97
2023-04-14T12:45:36.041Z,31.91
2023-04-14T12:46:36.408Z,31.87
2023-04-14T12:47:36.411Z,31.74
2023-04-14T12:48:36.009Z,31.79
2023-04-14T12:49:36.010Z,31.75
2023-04-14T12:50:35.964Z,31.74
2023-04-14T12:51:35.953Z,31.67
2023-04-14T12:52:36.344Z,31.66
2023-04-14T12:53:35.946Z,31.65